createdAt,value
2022-08-01T00:01:42.425Z,1.80
2022-08-01T00:04:44.748Z,1.75
2022-08-01T00:07:46.928Z,2.25
2022-08-01T00:11:12.897Z,2.13
2022-08-01T00:14:15.627Z,2.03
2022-08-01T00:17:17.634Z,1.50
2022-08-01T00:20:23.994Z,1.92
2022-08-01T00:23:26.940Z,1.92
2022-08-01T00:26:28.912Z,1.67
2022-08-01T00:30:11.378Z,1.77
2022-08-01T00:33:03.586Z,1.85
2022-08-01T00:36:05.831Z,1.55
2022-08-01T00:39:07.866Z,1.70
2022-08-01T00:42:11.726Z,1.92
2022-08-01T00:45:14.537Z,2.28
2022-08-01T00:48:16.557Z,2.33
2022-08-01T00:51:18.721Z,1.80
2022-08-01T00:54:20.731Z,2.40
2022-08-01T00:58:01.716Z,2.42
2022-08-01T01:00:52.622Z,2.20
2022-08-01T01:03:58.972Z,2.05
2022-08-01T01:07:01.554Z,1.97
2022-08-01T01:10:42.327Z,1.70
2022-08-01T01:14:06.326Z,2.40
2022-08-01T01:17:09.551Z,2.20
2022-08-01T01:20:14.536Z,2.13
2022-08-01T01:23:29.570Z,2.20
2022-08-01T01:26:40.526Z,2.20
2022-08-01T01:30:09.216Z,2.03
2022-08-01T01:33:12.802Z,1.90
2022-08-01T01:36:16.242Z,2.23
2022-08-01T01:39:18.802Z,2.13
2022-08-01T01:42:22.353Z,2.10
2022-08-01T01:45:27.612Z,2.20
2022-08-01T01:48:30.105Z,2.07
2022-08-01T01:51:33.649Z,1.77
2022-08-01T01:54:39.407Z,2.20
2022-08-01T01:57:43.044Z,2.47
2022-08-01T02:00:46.692Z,2.20
2022-08-01T02:03:50.418Z,2.00
2022-08-01T02:06:53.318Z,2.03
2022-08-01T02:09:56.338Z,2.40
2022-08-01T02:13:01.287Z,1.87
2022-08-01T02:16:07.586Z,2.30
2022-08-01T02:19:17.823Z,1.80
2022-08-01T02:22:27.630Z,2.00
2022-08-01T02:25:39.574Z,2.23
2022-08-01T02:29:06.572Z,1.80
2022-08-01T02:32:10.946Z,2.43
2022-08-01T02:35:21.665Z,2.00
2022-08-01T02:38:25.486Z,1.93
2022-08-01T02:41:28.583Z,2.00
2022-08-01T02:44:33.202Z,2.10
2022-08-01T02:47:37.562Z,2.00
2022-08-01T02:50:42.209Z,2.30
2022-08-01T02:58:03.442Z,2.40
2022-08-01T03:01:07.579Z,2.30
2022-08-01T03:04:11.081Z,2.10
2022-08-01T03:07:14.383Z,2.47
2022-08-01T03:10:19.238Z,2.20
2022-08-01T03:13:22.837Z,2.40
2022-08-01T03:16:25.763Z,2.10
2022-08-01T03:19:29.314Z,2.50
2022-08-01T03:22:32.127Z,2.87
2022-08-01T03:25:40.565Z,2.40
2022-08-01T03:28:43.304Z,2.20
2022-08-01T03:31:46.584Z,2.40
2022-08-01T03:34:50.606Z,2.33
2022-08-01T03:38:15.473Z,2.43
2022-08-01T03:41:22.413Z,2.37
2022-08-01T03:44:27.328Z,2.20
2022-08-01T03:47:33.868Z,2.20
2022-08-01T03:50:44.898Z,2.60
2022-08-01T03:53:47.223Z,2.07
2022-08-01T03:56:50.463Z,2.43
2022-08-01T03:59:52.958Z,2.40
2022-08-01T04:02:54.984Z,2.60
2022-08-01T04:05:57.038Z,2.70
2022-08-01T04:08:59.229Z,2.67
2022-08-01T04:12:01.515Z,2.53
2022-08-01T04:15:15.213Z,2.40
2022-08-01T04:18:17.189Z,2.53
2022-08-01T04:21:24.853Z,2.50
2022-08-01T04:24:30.618Z,2.33
2022-08-01T04:27:50.394Z,2.50
2022-08-01T04:31:01.280Z,2.40
2022-08-01T04:34:09.062Z,1.90
2022-08-01T04:37:18.883Z,2.40
2022-08-01T04:40:25.060Z,2.17
2022-08-01T04:43:27.114Z,2.50
2022-08-01T04:46:30.233Z,2.27
2022-08-01T04:49:49.269Z,2.35
2022-08-01T04:52:52.898Z,2.35
2022-08-01T04:56:14.518Z,2.35
2022-08-01T04:59:42.513Z,2.17
2022-08-01T05:02:45.209Z,2.80
2022-08-01T05:05:47.213Z,2.40
2022-08-01T05:08:49.164Z,2.58
2022-08-01T05:11:51.164Z,2.45
2022-08-01T05:14:53.102Z,2.03
2022-08-01T05:17:56.243Z,2.00
2022-08-01T05:20:58.248Z,2.92
2022-08-01T05:24:04.573Z,2.90
2022-08-01T05:27:09.038Z,2.72
2022-08-01T05:30:14.468Z,2.30
2022-08-01T05:33:23.659Z,2.33
2022-08-01T05:36:48.274Z,2.38
2022-08-01T05:39:53.558Z,2.60
2022-08-01T05:43:01.639Z,2.53
2022-08-01T05:46:03.978Z,2.35
2022-08-01T05:49:08.311Z,2.40
2022-08-01T05:52:10.708Z,2.58
2022-08-01T05:55:12.698Z,2.45
2022-08-01T06:02:51.498Z,2.50
2022-08-01T06:05:54.298Z,2.28
2022-08-01T06:08:56.565Z,2.03
2022-08-01T06:11:58.893Z,2.50
2022-08-01T06:15:01.134Z,2.58
2022-08-01T06:18:03.094Z,2.20
2022-08-01T06:21:05.554Z,2.45
2022-08-01T06:24:07.626Z,2.22
2022-08-01T06:27:22.396Z,2.15
2022-08-01T06:30:25.057Z,2.20
2022-08-01T06:33:28.258Z,2.30
2022-08-01T06:36:30.147Z,2.40
2022-08-01T06:39:32.148Z,2.92
2022-08-01T06:42:36.812Z,2.40
2022-08-01T06:45:40.214Z,2.60
2022-08-01T06:48:42.243Z,2.33
2022-08-01T06:51:44.547Z,2.53
2022-08-01T06:54:46.463Z,2.22
2022-08-01T06:57:53.320Z,2.10
2022-08-01T07:00:57.657Z,1.85
2022-08-01T07:04:00.558Z,1.88
2022-08-01T07:07:02.591Z,1.95
2022-08-01T07:10:05.152Z,2.13
2022-08-01T07:13:07.123Z,2.00
2022-08-01T07:16:09.464Z,1.92
2022-08-01T07:19:11.993Z,2.00
2022-08-01T07:22:23.482Z,2.03
2022-08-01T07:25:26.667Z,2.00
2022-08-01T07:28:29.722Z,1.65
2022-08-01T07:31:32.510Z,2.03
2022-08-01T07:34:34.990Z,1.60
2022-08-01T07:37:47.167Z,2.10
2022-08-01T07:40:53.482Z,1.60
2022-08-01T07:43:58.821Z,2.13
2022-08-01T07:47:05.141Z,1.95
2022-08-01T07:50:07.953Z,1.90
2022-08-01T07:53:11.527Z,1.75
2022-08-01T07:56:13.416Z,1.90
2022-08-01T07:59:15.326Z,1.90
2022-08-01T08:02:26.182Z,1.63
2022-08-01T08:05:58.123Z,1.48
2022-08-01T08:08:50.423Z,1.50
2022-08-01T08:11:52.527Z,1.58
2022-08-01T08:14:54.667Z,1.70
2022-08-01T08:17:56.991Z,1.67
2022-08-01T08:21:01.319Z,1.55
2022-08-01T08:24:26.514Z,1.80
2022-08-01T08:27:29.207Z,1.60
2022-08-01T08:30:31.118Z,1.80
2022-08-01T08:33:33.112Z,1.48
2022-08-01T08:36:35.577Z,1.67
2022-08-01T08:39:41.610Z,1.52
2022-08-01T08:42:44.528Z,1.90
2022-08-01T08:45:59.505Z,1.65
2022-08-01T08:49:04.937Z,1.80
2022-08-01T08:52:09.462Z,1.55
2022-08-01T08:55:15.708Z,1.50
2022-08-01T08:58:19.402Z,1.27
2022-08-01T09:01:22.768Z,1.20
2022-08-01T09:04:26.107Z,1.48
2022-08-01T09:07:28.745Z,1.60
2022-08-01T09:10:30.953Z,1.45
2022-08-01T09:13:34.191Z,1.55
2022-08-01T09:16:38.827Z,1.55
2022-08-01T09:19:43.569Z,1.88
2022-08-01T09:22:47.877Z,1.60
2022-08-01T09:25:56.800Z,1.55
2022-08-01T09:29:05.554Z,1.67
2022-08-01T09:32:08.560Z,1.50
2022-08-01T09:35:31.851Z,1.25
2022-08-01T09:38:37.958Z,1.92
2022-08-01T09:41:40.252Z,1.23
2022-08-01T09:44:55.158Z,1.75
2022-08-01T09:47:57.488Z,1.58
2022-08-01T09:51:07.310Z,1.20
2022-08-01T09:54:11.613Z,1.27
2022-08-01T09:57:13.773Z,1.20
2022-08-01T10:00:35.748Z,1.40
2022-08-01T10:03:41.204Z,1.40
2022-08-01T10:06:46.544Z,1.55
2022-08-01T10:09:48.658Z,1.20
2022-08-01T10:12:53.308Z,1.10
2022-08-01T10:15:55.579Z,1.00
2022-08-01T10:19:00.728Z,1.10
2022-08-01T10:22:09.653Z,1.10
2022-08-01T10:25:14.292Z,1.27
2022-08-01T10:28:21.696Z,1.10
2022-08-01T10:31:30.790Z,1.33
2022-08-01T10:34:34.828Z,1.20
2022-08-01T10:37:51.899Z,1.52
2022-08-01T10:40:55.805Z,1.23
2022-08-01T10:43:58.297Z,1.30
2022-08-01T10:47:20.962Z,1.20
2022-08-01T10:50:33.182Z,1.33
2022-08-01T10:53:42.712Z,1.23
2022-08-01T10:56:50.453Z,1.17
2022-08-01T10:59:59.410Z,1.63
2022-08-01T11:03:04.712Z,1.35
2022-08-01T11:06:07.110Z,1.35
2022-08-01T11:09:21.307Z,1.08
2022-08-01T11:12:44.057Z,1.17
2022-08-01T11:15:49.977Z,1.40
2022-08-01T11:18:53.067Z,1.20
2022-08-01T11:22:01.656Z,1.40
2022-08-01T11:25:04.393Z,1.30
2022-08-01T11:28:15.545Z,1.40
2022-08-01T11:31:17.630Z,1.30
2022-08-01T11:34:19.771Z,1.40
2022-08-01T11:37:30.642Z,1.55
2022-08-01T11:40:32.890Z,1.55
2022-08-01T11:43:35.248Z,1.35
2022-08-01T11:47:15.582Z,1.48
2022-08-01T11:50:30.625Z,1.30
2022-08-01T11:53:34.446Z,1.55
2022-08-01T11:56:47.981Z,1.60
2022-08-01T12:00:03.783Z,1.42
2022-08-01T12:03:08.437Z,1.40
2022-08-01T12:06:10.358Z,1.55
2022-08-01T12:09:22.674Z,1.40
2022-08-01T12:12:24.560Z,1.30
2022-08-01T12:15:34.011Z,1.40
2022-08-01T12:18:41.238Z,1.50
2022-08-01T12:21:43.128Z,1.17
2022-08-01T12:24:45.047Z,1.40
2022-08-01T12:27:51.237Z,1.42
2022-08-01T12:30:56.295Z,1.20
2022-08-01T12:33:58.511Z,1.30
2022-08-01T12:37:03.590Z,1.20
2022-08-01T12:40:36.284Z,1.58
2022-08-01T12:43:38.933Z,1.20
2022-08-01T12:46:44.400Z,1.13
2022-08-01T12:49:48.277Z,1.15
2022-08-01T12:52:51.534Z,1.20
2022-08-01T12:55:59.347Z,1.38
2022-08-01T12:59:01.813Z,1.15
2022-08-01T13:02:09.808Z,1.20
2022-08-01T13:05:12.697Z,1.08
2022-08-01T13:08:16.403Z,1.15
2022-08-01T13:11:20.063Z,0.93
2022-08-01T13:14:29.643Z,1.13
2022-08-01T13:17:37.167Z,1.10
2022-08-01T13:20:39.097Z,1.27
2022-08-01T13:24:01.637Z,1.13
2022-08-01T13:27:05.551Z,0.80
2022-08-01T13:30:16.995Z,0.90
2022-08-01T13:33:18.952Z,1.08
2022-08-01T13:36:27.963Z,1.20
2022-08-01T13:39:44.483Z,1.10
2022-08-01T13:42:46.443Z,1.10
2022-08-01T13:45:48.358Z,1.10
2022-08-01T13:48:50.642Z,1.00
2022-08-01T13:51:52.922Z,1.15
2022-08-01T13:54:55.098Z,0.98
2022-08-01T13:57:56.982Z,0.90
2022-08-01T14:00:59.860Z,0.80
2022-08-01T14:04:02.061Z,1.02
2022-08-01T14:07:08.249Z,1.23
2022-08-01T14:10:19.313Z,0.90
2022-08-01T14:13:23.822Z,1.02
2022-08-01T14:16:26.456Z,1.05
2022-08-01T14:19:37.524Z,1.05
2022-08-01T14:22:41.802Z,1.10
2022-08-01T14:26:01.752Z,0.90
2022-08-01T14:29:05.889Z,1.05
2022-08-01T14:32:08.283Z,0.88
2022-08-01T14:35:10.587Z,1.00
2022-08-01T14:38:12.842Z,1.10
2022-08-01T14:41:23.819Z,1.17
2022-08-01T14:44:28.118Z,0.90
2022-08-01T14:47:36.598Z,0.95
2022-08-01T14:50:38.617Z,1.20
2022-08-01T14:53:47.048Z,1.00
2022-08-01T14:56:54.930Z,1.05
2022-08-01T14:59:57.413Z,0.80
2022-08-01T15:02:59.602Z,1.08
2022-08-01T15:06:01.618Z,1.00
2022-08-01T15:09:08.152Z,1.00
2022-08-01T15:12:12.484Z,0.95
2022-08-01T15:15:14.473Z,1.02
2022-08-01T15:18:16.475Z,0.80
2022-08-01T15:21:39.894Z,0.95
2022-08-01T15:24:40.704Z,1.05
2022-08-01T15:27:42.738Z,1.05
2022-08-01T15:30:44.838Z,0.80
2022-08-01T15:33:46.744Z,1.08
2022-08-01T15:36:49.923Z,1.17
2022-08-01T15:39:56.432Z,0.93
2022-08-01T15:43:00.339Z,0.65
2022-08-01T15:46:03.175Z,1.33
2022-08-01T15:49:06.419Z,1.10
2022-08-01T15:52:09.377Z,0.98
2022-08-01T15:55:24.908Z,1.70
2022-08-01T15:58:26.784Z,0.68
2022-08-01T16:01:29.194Z,1.13
2022-08-01T16:04:31.195Z,1.10
2022-08-01T16:07:33.252Z,0.90
2022-08-01T16:10:35.129Z,1.20
2022-08-01T16:13:37.094Z,0.95
2022-08-01T16:16:39.018Z,0.82
2022-08-01T16:19:41.684Z,1.10
2022-08-01T16:22:43.499Z,1.40
2022-08-01T16:25:46.748Z,1.10
2022-08-01T16:28:52.297Z,1.20
2022-08-01T16:32:00.525Z,1.38
2022-08-01T16:35:16.544Z,0.90
2022-08-01T16:38:21.041Z,0.98
2022-08-01T16:41:24.016Z,1.10
2022-08-01T16:44:28.629Z,0.90
2022-08-01T16:47:36.507Z,1.00
2022-08-01T16:50:38.512Z,1.00
2022-08-01T16:53:40.407Z,1.13
2022-08-01T16:56:42.467Z,1.35
2022-08-01T16:59:44.382Z,1.02
2022-08-01T17:02:46.763Z,1.33
2022-08-01T17:05:49.168Z,1.30
2022-08-01T17:08:51.482Z,1.45
2022-08-01T17:11:53.349Z,1.10
2022-08-01T17:14:55.660Z,1.25
2022-08-01T17:17:57.585Z,1.30
2022-08-01T17:20:59.858Z,1.30
2022-08-01T17:24:01.814Z,1.35
2022-08-01T17:27:07.155Z,1.10
2022-08-01T17:30:13.943Z,1.27
2022-08-01T17:33:15.933Z,1.02
2022-08-01T17:36:18.908Z,1.05
2022-08-01T17:39:23.788Z,2.17
2022-08-01T17:42:41.940Z,1.25
2022-08-01T17:45:51.065Z,1.33
2022-08-01T17:48:53.536Z,1.35
2022-08-01T17:51:55.502Z,1.30
2022-08-01T17:54:58.318Z,1.45
2022-08-01T17:58:10.616Z,1.00
2022-08-01T18:01:14.960Z,2.20
2022-08-01T18:04:27.958Z,1.60
2022-08-01T18:08:01.172Z,1.33
2022-08-01T18:10:51.793Z,1.20
2022-08-01T18:13:53.738Z,1.38
2022-08-01T18:16:56.193Z,1.13
2022-08-01T18:19:58.287Z,1.25
2022-08-01T18:23:00.682Z,1.05
2022-08-01T18:26:03.223Z,1.27
2022-08-01T18:29:07.727Z,1.58
2022-08-01T18:32:09.782Z,1.25
2022-08-01T18:35:14.421Z,1.63
2022-08-01T18:38:16.534Z,1.05
2022-08-01T18:41:18.803Z,1.65
2022-08-01T18:44:23.385Z,1.13
2022-08-01T18:47:25.336Z,1.23
2022-08-01T18:50:27.213Z,1.30
2022-08-01T18:53:29.340Z,1.05
2022-08-01T18:56:31.263Z,1.40
2022-08-01T18:59:33.243Z,1.45
2022-08-01T19:02:36.168Z,1.40
2022-08-01T19:05:38.440Z,1.30
2022-08-01T19:08:40.901Z,1.27
2022-08-01T19:11:42.862Z,1.02
2022-08-01T19:14:44.818Z,1.30
2022-08-01T19:17:48.688Z,1.27
2022-08-01T19:20:50.673Z,1.08
2022-08-01T19:24:11.078Z,1.33
2022-08-01T19:27:17.593Z,1.38
2022-08-01T19:30:20.563Z,0.95
2022-08-01T19:33:22.492Z,1.10
2022-08-01T19:36:25.684Z,1.33
2022-08-01T19:39:27.861Z,1.17
2022-08-01T19:42:30.567Z,1.17
2022-08-01T19:45:33.289Z,1.05
2022-08-01T19:48:41.583Z,1.15
2022-08-01T19:51:48.968Z,1.20
2022-08-01T19:54:51.402Z,1.50
2022-08-01T20:03:05.426Z,1.25
2022-08-01T20:06:07.699Z,1.77
2022-08-01T20:09:09.943Z,1.00
2022-08-01T20:12:12.405Z,1.95
2022-08-01T20:15:14.987Z,1.20
2022-08-01T20:18:16.829Z,1.33
2022-08-01T20:21:19.904Z,1.13
2022-08-01T20:24:23.740Z,1.40
2022-08-01T20:27:31.042Z,1.40
2022-08-01T20:30:33.679Z,1.20
2022-08-01T20:33:40.535Z,1.25
2022-08-01T20:36:42.798Z,1.17
2022-08-01T20:39:58.404Z,1.05
2022-08-01T20:43:02.783Z,1.30
2022-08-01T20:46:06.177Z,1.02
2022-08-01T20:49:12.297Z,1.35
2022-08-01T20:52:17.303Z,1.20
2022-08-01T20:55:19.284Z,1.33
2022-08-01T20:58:35.035Z,0.90
2022-08-01T21:01:53.328Z,1.33
2022-08-01T21:05:05.248Z,1.10
2022-08-01T21:08:18.556Z,1.10
2022-08-01T21:11:21.795Z,1.52
2022-08-01T21:14:43.519Z,1.25
2022-08-01T21:17:50.948Z,1.02
2022-08-01T21:21:00.395Z,1.02
2022-08-01T21:24:09.919Z,1.20
2022-08-01T21:27:16.106Z,1.30
2022-08-01T21:30:18.223Z,1.30
2022-08-01T21:33:20.288Z,1.30
2022-08-01T21:36:22.944Z,1.30
2022-08-01T21:39:25.640Z,1.50
2022-08-01T21:42:28.923Z,1.77
2022-08-01T21:45:31.161Z,1.35
2022-08-01T21:48:33.399Z,1.27
2022-08-01T21:51:51.831Z,1.13
2022-08-01T21:55:15.645Z,1.50
2022-08-01T21:58:49.811Z,1.65
2022-08-01T22:02:02.578Z,1.42
2022-08-01T22:05:08.035Z,1.60
2022-08-01T22:08:11.330Z,1.35
2022-08-01T22:11:14.754Z,1.40
2022-08-01T22:14:17.785Z,1.10
2022-08-01T22:17:24.038Z,1.33
2022-08-01T22:20:27.625Z,1.30
2022-08-01T22:23:29.699Z,1.30
2022-08-01T22:26:33.705Z,1.40
2022-08-01T22:29:35.684Z,1.30
2022-08-01T22:32:39.658Z,1.60
2022-08-01T22:35:41.935Z,1.40
2022-08-01T22:38:44.305Z,1.50
2022-08-01T22:42:01.912Z,1.20
2022-08-01T22:45:07.505Z,1.45
2022-08-01T22:48:09.279Z,1.38
2022-08-01T22:51:17.134Z,1.70
2022-08-01T22:54:23.645Z,1.30
2022-08-01T22:57:50.925Z,1.23
2022-08-01T23:01:00.149Z,1.40
2022-08-01T23:04:03.640Z,1.35
2022-08-01T23:07:06.863Z,1.30
2022-08-01T23:10:09.699Z,1.17
2022-08-01T23:13:12.443Z,1.67
2022-08-01T23:16:17.544Z,1.30
2022-08-01T23:19:21.058Z,1.30
2022-08-01T23:22:24.230Z,1.65
2022-08-01T23:25:27.724Z,1.30
2022-08-01T23:28:29.884Z,1.20
2022-08-01T23:32:01.817Z,1.60
2022-08-01T23:34:54.126Z,1.55
2022-08-01T23:38:02.219Z,1.35
2022-08-01T23:41:15.429Z,1.42
2022-08-01T23:44:17.574Z,1.70
2022-08-01T23:47:20.013Z,1.60
2022-08-01T23:50:22.383Z,1.42
2022-08-01T23:53:24.633Z,1.67
2022-08-01T23:56:32.772Z,1.00
2022-08-01T23:59:52.494Z,1.30
